Time;durP1;ratioP1;P1;durP2;ratioP2;P2;SDS_P1;SDS_P2;PMS_P1;PMS_P2;Temp;Humidity;BMP_temperature;BMP_pressure;BME280_temperature;BME280_humidity;BME280_pressure;Samples;Min_cycle;Max_cycle;Signal;HPM_P1;HPM_P2
2021/03/06 00:00:31;;;;;;;12.98;3.40;;;0.40;99.90;;;;;;5104374;28;20044;-67
2021/03/06 00:02:56;;;;;;;17.15;5.00;;;0.50;99.90;;;;;;5103196;28;20044;-67
2021/03/06 00:05:24;;;;;;;15.20;3.63;;;0.30;99.90;;;;;;5110466;28;20050;-67
2021/03/06 00:07:50;;;;;;;22.00;4.78;;;0.40;99.90;;;;;;5107659;28;20066;-67
2021/03/06 00:10:16;;;;;;;16.30;4.32;;;0.50;99.90;;;;;;5106491;28;20040;-67
2021/03/06 00:12:44;;;;;;;20.85;4.32;;;0.60;99.90;;;;;;5111179;28;20035;-67
2021/03/06 00:15:14;;;;;;;11.05;4.10;;;0.60;99.90;;;;;;5122761;28;20044;-67
2021/03/06 00:17:40;;;;;;;14.50;3.90;;;0.60;99.90;;;;;;5103842;28;20059;-67
2021/03/06 00:20:07;;;;;;;14.70;3.92;;;0.70;99.90;;;;;;5104181;28;20051;-67
2021/03/06 00:22:33;;;;;;;15.82;2.97;;;0.70;99.90;;;;;;5111586;28;20108;-67
2021/03/06 00:24:58;;;;;;;15.63;4.95;;;0.80;99.90;;;;;;5104830;28;20411;-67
2021/03/06 00:27:25;;;;;;;21.08;2.97;;;0.80;99.90;;;;;;5103686;28;20050;-67
2021/03/06 00:29:51;;;;;;;15.20;3.85;;;0.70;99.90;;;;;;5103634;28;20064;-67
2021/03/06 00:32:17;;;;;;;19.52;3.95;;;0.70;99.90;;;;;;5108718;28;20052;-67
2021/03/06 00:34:43;;;;;;;14.93;3.70;;;0.60;99.90;;;;;;5115985;28;20070;-67
2021/03/06 00:37:09;;;;;;;15.73;3.33;;;0.30;99.90;;;;;;5108806;28;20048;-67
2021/03/06 00:39:35;;;;;;;13.00;3.25;;;0.40;99.90;;;;;;5115534;28;20036;-66
2021/03/06 00:42:02;;;;;;;12.43;3.53;;;0.40;99.90;;;;;;5103476;28;20048;-66
2021/03/06 00:44:27;;;;;;;16.58;4.10;;;0.30;99.90;;;;;;5120327;28;20047;-67
2021/03/06 00:46:53;;;;;;;14.35;2.97;;;0.30;99.90;;;;;;5117884;28;20063;-67
2021/03/06 00:49:20;;;;;;;21.45;3.65;;;0.40;99.90;;;;;;5117331;28;20078;-67
2021/03/06 00:51:47;;;;;;;17.48;4.00;;;0.40;99.90;;;;;;5116747;28;20035;-67
2021/03/06 00:54:13;;;;;;;17.02;3.42;;;0.40;99.90;;;;;;5117084;28;20108;-67
2021/03/06 00:56:39;;;;;;;26.35;4.15;;;0.50;99.90;;;;;;5127796;28;20040;-67
2021/03/06 00:59:05;;;;;;;22.75;4.50;;;0.60;99.90;;;;;;5126835;28;20046;-67
2021/03/06 01:01:30;;;;;;;16.83;4.45;;;0.60;99.90;;;;;;5113745;28;20040;-67
2021/03/06 01:03:56;;;;;;;18.90;3.45;;;0.60;99.90;;;;;;5110043;28;20044;-67
2021/03/06 01:06:22;;;;;;;20.05;4.43;;;0.70;99.90;;;;;;5109931;28;20124;-67
2021/03/06 01:08:48;;;;;;;17.27;3.05;;;0.70;99.90;;;;;;5110448;28;20036;-67
2021/03/06 01:11:14;;;;;;;13.25;4.18;;;0.90;99.90;;;;;;5110154;28;20060;-67
2021/03/06 01:13:39;;;;;;;14.80;2.70;;;0.90;99.90;;;;;;5116584;28;20480;-67
2021/03/06 01:16:05;;;;;;;10.65;2.67;;;1.00;99.90;;;;;;5110043;28;20039;-67
2021/03/06 01:18:32;;;;;;;16.70;4.38;;;1.10;99.90;;;;;;5115434;28;20035;-67
2021/03/06 01:20:58;;;;;;;15.00;2.72;;;1.10;99.90;;;;;;5124548;28;20533;-67
2021/03/06 01:23:23;;;;;;;11.55;2.92;;;1.20;99.90;;;;;;5110294;28;20040;-67
2021/03/06 01:25:49;;;;;;;16.50;3.97;;;1.20;99.90;;;;;;5110161;28;20105;-68
2021/03/06 01:28:15;;;;;;;12.90;3.40;;;1.20;99.90;;;;;;5110051;28;20044;-68
2021/03/06 01:30:41;;;;;;;15.55;3.80;;;1.20;99.90;;;;;;5123689;28;20047;-68
2021/03/06 01:33:08;;;;;;;12.13;4.57;;;1.30;99.90;;;;;;5123445;28;20162;-68
2021/03/06 01:35:34;;;;;;;19.55;3.20;;;1.30;99.90;;;;;;5110134;28;20430;-67
2021/03/06 01:38:00;;;;;;;10.30;2.22;;;1.30;99.90;;;;;;5110502;28;20048;-68
2021/03/06 01:40:31;;;;;;;19.45;3.75;;;1.30;99.90;;;;;;5121162;28;20046;-68
2021/03/06 01:42:57;;;;;;;14.80;2.90;;;1.40;99.90;;;;;;5125130;28;20050;-67
2021/03/06 01:45:24;;;;;;;7.30;2.50;;;1.50;99.90;;;;;;5120332;28;20044;-67
2021/03/06 01:47:50;;;;;;;9.73;2.83;;;1.50;99.90;;;;;;5111725;28;20060;-67
2021/03/06 01:50:26;;;;;;;11.77;2.30;;;1.50;99.90;;;;;;5109974;28;20056;-67
2021/03/06 01:52:52;;;;;;;11.27;2.85;;;1.50;99.90;;;;;;5111183;28;20059;-67
2021/03/06 01:55:22;;;;;;;23.52;3.53;;;1.50;99.90;;;;;;5111302;28;20048;-67
2021/03/06 01:57:48;;;;;;;13.50;3.10;;;1.50;99.90;;;;;;5106618;28;20044;-67
2021/03/06 02:00:15;;;;;;;10.52;3.10;;;1.50;99.90;;;;;;5113003;28;20059;-67
2021/03/06 02:02:42;;;;;;;10.18;2.60;;;1.40;99.90;;;;;;5113019;28;20059;-67
2021/03/06 02:05:09;;;;;;;13.23;3.38;;;1.50;99.90;;;;;;5106458;28;20581;-67
2021/03/06 02:07:35;;;;;;;18.55;3.17;;;1.40;99.90;;;;;;5106419;28;20048;-67
2021/03/06 02:10:04;;;;;;;16.45;2.95;;;1.40;99.90;;;;;;5110803;28;20431;-67
2021/03/06 02:13:05;;;;;;;19.10;3.10;;;1.40;99.90;;;;;;5106566;28;20047;-67
2021/03/06 02:15:53;;;;;;;11.18;3.60;;;1.40;99.90;;;;;;5043179;28;20160;-68
2021/03/06 02:18:45;;;;;;;12.50;2.28;;;1.50;99.90;;;;;;5042933;28;20062;-67
2021/03/06 02:21:36;;;;;;;12.77;2.33;;;1.50;99.90;;;;;;5043204;28;20050;-67
2021/03/06 02:24:39;;;;;;;13.20;3.88;;;1.60;99.90;;;;;;5039061;28;20057;-68
2021/03/06 02:27:36;;;;;;;8.98;2.40;;;1.60;99.90;;;;;;5042972;28;20053;-67
2021/03/06 02:30:11;;;;;;;14.07;2.70;;;1.70;99.90;;;;;;4993301;28;20053;-67
2021/03/06 02:32:43;;;;;;;16.13;2.47;;;1.50;99.90;;;;;;5042392;28;20064;-67
2021/03/06 02:35:13;;;;;;;9.45;2.97;;;1.60;99.90;;;;;;5042885;28;20156;-67
2021/03/06 02:38:10;;;;;;;11.63;2.38;;;1.70;99.90;;;;;;5042319;28;20061;-67
2021/03/06 02:40:38;;;;;;;15.02;2.88;;;1.70;99.90;;;;;;5042646;28;20148;-67
2021/03/06 02:43:08;;;;;;;14.82;2.45;;;1.60;99.90;;;;;;5042554;28;20061;-67
2021/03/06 02:45:36;;;;;;;16.58;4.05;;;1.60;99.90;;;;;;5042764;28;20124;-67
2021/03/06 02:48:03;;;;;;;10.02;2.50;;;1.70;99.90;;;;;;5042060;28;20061;-67
2021/03/06 02:50:29;;;;;;;12.95;3.17;;;1.60;99.90;;;;;;5107658;28;20064;-67
2021/03/06 02:52:55;;;;;;;7.65;2.25;;;1.70;99.90;;;;;;5111575;28;20044;-67
2021/03/06 02:55:21;;;;;;;12.23;2.75;;;1.60;99.90;;;;;;5113643;28;20074;-66
2021/03/06 02:57:57;;;;;;;18.77;3.63;;;1.70;99.90;;;;;;5118230;28;20043;-66
2021/03/06 03:00:43;;;;;;;8.57;2.47;;;1.60;99.90;;;;;;5112552;28;20044;-66
2021/03/06 03:03:16;;;;;;;13.30;3.53;;;1.60;99.90;;;;;;5108291;28;20040;-67
2021/03/06 03:06:07;;;;;;;12.55;3.03;;;1.60;99.90;;;;;;5105239;28;20111;-67
2021/03/06 03:08:42;;;;;;;24.90;2.90;;;1.70;99.90;;;;;;5104639;28;20040;-67
2021/03/06 03:11:11;;;;;;;7.25;2.50;;;1.70;99.90;;;;;;5104774;28;20529;-67
2021/03/06 03:13:40;;;;;;;14.73;2.00;;;1.70;99.90;;;;;;5110922;28;20053;-67
2021/03/06 03:16:21;;;;;;;10.18;2.33;;;1.80;99.90;;;;;;5105301;28;20073;-67
2021/03/06 03:19:01;;;;;;;15.18;2.92;;;1.80;99.90;;;;;;5109205;28;20040;-67
2021/03/06 03:21:29;;;;;;;11.63;3.15;;;1.80;99.90;;;;;;5110911;28;20058;-67
2021/03/06 03:24:03;;;;;;;13.60;3.05;;;1.80;99.90;;;;;;5117923;28;20040;-67
2021/03/06 03:26:30;;;;;;;16.02;2.78;;;1.80;99.90;;;;;;5116520;28;20044;-67
2021/03/06 03:28:57;;;;;;;9.07;2.78;;;1.80;99.90;;;;;;5120365;28;20051;-67
2021/03/06 03:31:25;;;;;;;19.02;2.95;;;1.80;99.90;;;;;;5114506;28;20088;-67
2021/03/06 03:33:51;;;;;;;12.45;2.97;;;1.80;99.90;;;;;;5121960;28;20055;-67
2021/03/06 03:36:21;;;;;;;10.43;3.60;;;1.90;99.90;;;;;;5112623;28;20047;-67
2021/03/06 03:38:47;;;;;;;19.05;2.58;;;1.90;99.90;;;;;;5112401;28;20047;-67
2021/03/06 03:41:13;;;;;;;13.20;2.75;;;2.00;99.90;;;;;;5110918;28;20044;-67
2021/03/06 03:43:41;;;;;;;12.07;2.88;;;1.90;99.90;;;;;;5120171;28;20044;-67
2021/03/06 03:46:07;;;;;;;10.00;2.40;;;1.90;99.90;;;;;;5110695;28;20058;-67
2021/03/06 03:48:38;;;;;;;6.50;2.33;;;1.90;99.90;;;;;;5113226;28;20050;-67
2021/03/06 03:51:05;;;;;;;15.82;3.22;;;1.90;99.90;;;;;;5104206;28;20447;-66
2021/03/06 03:53:31;;;;;;;10.57;2.80;;;1.90;99.90;;;;;;5109129;28;20438;-67
2021/03/06 03:55:59;;;;;;;13.88;3.63;;;2.00;99.90;;;;;;5111597;28;20051;-66
2021/03/06 03:58:25;;;;;;;10.23;2.20;;;2.00;99.90;;;;;;5111473;28;20039;-67
2021/03/06 04:00:59;;;;;;;18.05;2.83;;;2.20;99.90;;;;;;5110277;28;20071;-67
2021/03/06 04:03:26;;;;;;;10.45;3.50;;;2.10;99.90;;;;;;5103437;28;20087;-67
2021/03/06 04:05:52;;;;;;;12.07;3.33;;;2.10;99.90;;;;;;5103881;28;20048;-67
2021/03/06 04:08:18;;;;;;;13.20;3.80;;;2.10;99.90;;;;;;5104332;28;20096;-66
2021/03/06 04:10:44;;;;;;;6.40;2.42;;;2.10;99.90;;;;;;5104178;28;20044;-65
2021/03/06 04:13:10;;;;;;;16.67;2.75;;;2.10;99.90;;;;;;5103757;28;20040;-66
2021/03/06 04:15:36;;;;;;;10.30;2.63;;;2.10;99.90;;;;;;5104015;28;20047;-66
2021/03/06 04:18:06;;;;;;;10.40;2.45;;;2.10;99.90;;;;;;5121388;28;20043;-66
2021/03/06 04:20:32;;;;;;;15.55;2.70;;;2.10;99.90;;;;;;5110990;28;20047;-65
2021/03/06 04:23:02;;;;;;;13.77;2.50;;;2.00;99.90;;;;;;5105035;28;20048;-65
2021/03/06 04:25:28;;;;;;;12.43;4.00;;;2.00;99.90;;;;;;5111097;28;20066;-65
2021/03/06 04:27:54;;;;;;;10.85;3.28;;;2.00;99.90;;;;;;5110929;28;20040;-65
2021/03/06 04:30:20;;;;;;;13.93;3.50;;;2.00;99.90;;;;;;5103326;28;20062;-66
2021/03/06 04:32:46;;;;;;;10.88;2.70;;;2.00;99.90;;;;;;5103514;28;20106;-65
2021/03/06 04:35:12;;;;;;;10.30;3.78;;;2.00;99.90;;;;;;5103200;28;20044;-65
2021/03/06 04:37:39;;;;;;;7.57;2.42;;;2.10;99.90;;;;;;5103884;28;20044;-65
2021/03/06 04:40:07;;;;;;;12.02;3.40;;;2.10;99.90;;;;;;5103514;28;20111;-65
2021/03/06 04:42:33;;;;;;;15.02;3.10;;;2.20;99.90;;;;;;5103317;28;20042;-65
2021/03/06 04:44:59;;;;;;;16.95;3.38;;;2.20;99.90;;;;;;5103526;28;20122;-65
2021/03/06 04:47:24;;;;;;;14.43;3.67;;;2.10;99.90;;;;;;5102750;28;20052;-65
2021/03/06 04:49:50;;;;;;;11.00;3.22;;;2.10;99.90;;;;;;5103667;28;20044;-65
2021/03/06 04:52:16;;;;;;;8.75;3.00;;;2.10;99.90;;;;;;5103432;28;20048;-65
2021/03/06 04:54:42;;;;;;;10.63;2.80;;;2.10;99.90;;;;;;5103342;28;20115;-65
2021/03/06 04:57:09;;;;;;;11.50;4.00;;;2.10;99.90;;;;;;5103591;28;20051;-65
2021/03/06 04:59:35;;;;;;;17.70;3.53;;;2.10;99.90;;;;;;5122664;28;20035;-65
2021/03/06 05:02:01;;;;;;;12.05;3.50;;;2.10;99.90;;;;;;5110649;28;20046;-65
2021/03/06 05:04:27;;;;;;;10.90;3.42;;;2.10;99.90;;;;;;5103397;28;20096;-65
2021/03/06 05:06:52;;;;;;;14.77;4.72;;;2.10;99.90;;;;;;5105231;28;20219;-65
2021/03/06 05:09:18;;;;;;;16.08;3.92;;;2.10;99.90;;;;;;5107836;28;20040;-65
2021/03/06 05:11:44;;;;;;;6.57;3.13;;;2.10;99.90;;;;;;5104740;28;20040;-65
2021/03/06 05:14:09;;;;;;;13.55;3.70;;;2.00;99.90;;;;;;5113640;28;20054;-65
2021/03/06 05:16:35;;;;;;;21.75;3.33;;;2.10;99.90;;;;;;5105631;28;20048;-65
2021/03/06 05:19:01;;;;;;;9.00;3.10;;;2.10;99.90;;;;;;5103067;28;20036;-65
2021/03/06 05:21:27;;;;;;;13.23;3.33;;;2.10;99.90;;;;;;5117313;28;20051;-65
2021/03/06 05:23:53;;;;;;;10.15;3.13;;;2.10;99.90;;;;;;5103417;28;20066;-65
2021/03/06 05:26:18;;;;;;;8.15;3.55;;;2.10;99.90;;;;;;5103292;28;20089;-65
2021/03/06 05:28:44;;;;;;;12.20;3.85;;;2.10;99.90;;;;;;5113005;28;20046;-65
2021/03/06 05:31:10;;;;;;;6.82;3.08;;;2.10;99.90;;;;;;5105411;28;20048;-65
2021/03/06 05:33:36;;;;;;;15.00;3.90;;;2.10;99.90;;;;;;5106642;28;20043;-65
2021/03/06 05:36:02;;;;;;;12.60;3.92;;;2.10;99.90;;;;;;5106848;28;20198;-65
2021/03/06 05:38:27;;;;;;;9.18;2.72;;;2.10;99.90;;;;;;5120275;28;20074;-65
2021/03/06 05:40:53;;;;;;;15.48;3.33;;;2.10;99.90;;;;;;5106658;28;20120;-65
2021/03/06 05:43:19;;;;;;;7.47;2.60;;;2.10;99.90;;;;;;5108451;28;20051;-66
2021/03/06 05:45:49;;;;;;;8.57;2.47;;;2.10;99.90;;;;;;5116089;28;20036;-66
2021/03/06 05:48:16;;;;;;;8.10;3.13;;;2.10;99.90;;;;;;5106065;28;20052;-66
2021/03/06 05:50:42;;;;;;;12.20;2.55;;;2.10;99.90;;;;;;5115561;28;20040;-66
2021/03/06 05:53:15;;;;;;;9.88;2.38;;;2.10;99.90;;;;;;5106863;28;20488;-66
2021/03/06 05:55:46;;;;;;;13.02;2.42;;;2.10;99.90;;;;;;5106302;28;20074;-66
2021/03/06 05:58:12;;;;;;;6.32;3.10;;;2.10;99.90;;;;;;5108211;28;20050;-66
2021/03/06 06:00:41;;;;;;;11.15;2.92;;;2.10;99.90;;;;;;5115525;28;20319;-66
2021/03/06 06:03:09;;;;;;;10.93;2.85;;;2.10;99.90;;;;;;5106004;28;20453;-65
2021/03/06 06:05:35;;;;;;;8.35;2.63;;;2.10;99.90;;;;;;5106477;28;20040;-66
2021/03/06 06:08:03;;;;;;;16.80;2.70;;;2.10;99.90;;;;;;5105962;28;20070;-66
2021/03/06 06:10:30;;;;;;;10.95;2.45;;;2.10;99.90;;;;;;5114146;28;20036;-66
2021/03/06 06:12:57;;;;;;;8.02;2.53;;;2.10;99.90;;;;;;5106081;28;20119;-66
2021/03/06 06:15:23;;;;;;;9.25;2.33;;;2.10;99.90;;;;;;5107668;28;20411;-66
2021/03/06 06:17:49;;;;;;;9.30;2.67;;;2.10;99.90;;;;;;5124235;28;20040;-66
2021/03/06 06:20:18;;;;;;;14.32;2.47;;;2.10;99.90;;;;;;5109933;28;20039;-66
2021/03/06 06:22:44;;;;;;;8.90;2.70;;;2.10;99.90;;;;;;5105619;28;20110;-65
2021/03/06 06:25:10;;;;;;;6.43;2.40;;;2.10;99.90;;;;;;5106548;28;20123;-66
2021/03/06 06:27:36;;;;;;;7.30;2.72;;;2.20;99.90;;;;;;5106240;28;20066;-65
2021/03/06 06:30:13;;;;;;;10.75;3.22;;;2.10;99.90;;;;;;5105745;28;20068;-65
2021/03/06 06:32:46;;;;;;;8.40;2.72;;;2.10;99.90;;;;;;5105368;28;20126;-66
2021/03/06 06:35:14;;;;;;;9.75;2.95;;;2.10;99.90;;;;;;5120252;28;20118;-65
2021/03/06 06:37:54;;;;;;;6.65;1.85;;;2.10;99.90;;;;;;5107447;28;20517;-65
2021/03/06 06:40:22;;;;;;;16.02;2.70;;;2.20;99.90;;;;;;5110330;28;20097;-65
2021/03/06 06:42:48;;;;;;;7.63;1.83;;;2.20;99.90;;;;;;5105420;28;20058;-65
2021/03/06 06:45:16;;;;;;;11.05;2.20;;;2.30;99.90;;;;;;5108047;28;20040;-65
2021/03/06 06:47:44;;;;;;;12.40;2.17;;;2.30;99.90;;;;;;5105011;28;20052;-65
2021/03/06 06:50:12;;;;;;;6.35;2.05;;;2.30;99.90;;;;;;5121100;28;20053;-65
2021/03/06 06:52:43;;;;;;;9.35;2.78;;;2.30;99.90;;;;;;5109478;28;20044;-65
2021/03/06 06:55:14;;;;;;;5.97;1.70;;;2.30;99.90;;;;;;5117880;28;20043;-65
2021/03/06 06:58:06;;;;;;;10.57;2.20;;;2.30;99.90;;;;;;5109783;28;20096;-65
2021/03/06 07:00:34;;;;;;;13.35;2.80;;;2.30;99.90;;;;;;5103696;28;20052;-65
2021/03/06 07:03:05;;;;;;;10.02;2.45;;;2.30;99.90;;;;;;5113407;28;20062;-65
2021/03/06 07:05:33;;;;;;;6.57;1.60;;;2.40;99.90;;;;;;5121479;28;20483;-65
2021/03/06 07:08:01;;;;;;;10.25;2.40;;;2.40;99.90;;;;;;5107635;28;20036;-65
2021/03/06 07:10:34;;;;;;;;;;;2.40;99.90;;;;;;5105471;28;20059;-65
2021/03/06 07:13:05;;;;;;;5.50;1.50;;;2.40;99.90;;;;;;5104804;28;19920;-65
2021/03/06 07:15:32;;;;;;;9.77;2.20;;;2.50;99.90;;;;;;5112676;28;20043;-65
2021/03/06 07:18:00;;;;;;;5.63;1.80;;;2.50;99.90;;;;;;5122739;28;20065;-65
2021/03/06 07:20:30;;;;;;;4.18;1.60;;;2.50;99.90;;;;;;5105124;28;20044;-66
2021/03/06 07:22:58;;;;;;;5.55;1.65;;;2.60;99.90;;;;;;5105879;28;20127;-65
2021/03/06 07:25:26;;;;;;;5.43;2.17;;;2.60;99.90;;;;;;5113230;28;20036;-65
2021/03/06 07:27:52;;;;;;;6.72;2.47;;;2.60;99.90;;;;;;5104627;28;20048;-65
2021/03/06 07:30:18;;;;;;;9.13;2.47;;;2.60;99.90;;;;;;5104419;28;20047;-65
2021/03/06 07:32:48;;;;;;;10.15;1.88;;;2.60;99.90;;;;;;5104217;28;20047;-65
2021/03/06 07:35:15;;;;;;;10.73;2.40;;;2.70;99.90;;;;;;5115038;28;20521;-65
2021/03/06 07:37:42;;;;;;;11.82;2.30;;;2.70;99.90;;;;;;5114376;28;20055;-65
2021/03/06 07:40:11;;;;;;;9.02;3.17;;;2.80;99.90;;;;;;5108978;28;20050;-65
2021/03/06 07:42:47;;;;;;;9.63;3.30;;;2.90;99.90;;;;;;5104080;28;20047;-66
2021/03/06 07:45:19;;;;;;;7.00;2.85;;;2.90;99.90;;;;;;5104771;28;20527;-65
2021/03/06 07:47:52;;;;;;;5.32;1.83;;;3.00;99.90;;;;;;5110720;28;20044;-66
2021/03/06 07:50:31;;;;;;;7.22;2.90;;;3.00;99.90;;;;;;5110857;28;20115;-66
2021/03/06 07:52:58;;;;;;;3.83;1.90;;;3.00;99.90;;;;;;5111711;28;20065;-66
2021/03/06 07:55:30;;;;;;;6.28;2.20;;;3.10;99.90;;;;;;5110305;28;20052;-66
2021/03/06 07:58:13;;;;;;;6.78;1.65;;;3.20;99.90;;;;;;5104206;28;20536;-66
2021/03/06 08:00:56;;;;;;;6.63;1.70;;;3.20;99.90;;;;;;5104192;28;20044;-66
2021/03/06 08:03:27;;;;;;;4.85;1.85;;;3.30;99.90;;;;;;5113490;28;20075;-65
2021/03/06 08:05:58;;;;;;;7.30;1.65;;;3.30;99.90;;;;;;5107556;28;20067;-66
2021/03/06 08:08:36;;;;;;;7.18;2.15;;;3.40;99.90;;;;;;5103986;28;20048;-66
2021/03/06 08:11:06;;;;;;;7.72;1.98;;;3.50;99.90;;;;;;5104214;28;20514;-66
2021/03/06 08:13:51;;;;;;;6.35;1.50;;;3.60;99.90;;;;;;5108891;28;20063;-66
2021/03/06 08:16:28;;;;;;;6.88;1.95;;;3.70;99.90;;;;;;5122851;28;20112;-66
2021/03/06 08:19:01;;;;;;;8.47;1.90;;;3.70;99.90;;;;;;5111467;28;20039;-66
2021/03/06 08:21:31;;;;;;;3.65;2.15;;;3.70;99.90;;;;;;5108134;28;20074;-66
2021/03/06 08:24:15;;;;;;;8.77;2.08;;;3.80;99.90;;;;;;5104264;28;20102;-66
2021/03/06 08:26:52;;;;;;;10.35;2.85;;;3.80;99.90;;;;;;5117854;28;20073;-65
2021/03/06 08:29:25;;;;;;;8.30;2.80;;;3.80;99.90;;;;;;5111343;28;20078;-66
2021/03/06 08:31:57;;;;;;;7.32;2.33;;;3.80;99.90;;;;;;5103141;28;20044;-66
2021/03/06 08:34:46;;;;;;;13.27;2.30;;;3.90;99.90;;;;;;5103832;28;20059;-66
2021/03/06 08:37:14;;;;;;;4.15;1.77;;;4.00;99.90;;;;;;5103300;28;20178;-66
2021/03/06 08:39:48;;;;;;;4.78;1.70;;;4.10;99.90;;;;;;5111260;28;20127;-66
2021/03/06 08:42:23;;;;;;;3.03;1.58;;;4.00;99.90;;;;;;5103573;28;20040;-65
2021/03/06 08:44:50;;;;;;;7.32;2.50;;;3.90;99.90;;;;;;5103362;28;20317;-67
2021/03/06 08:47:23;;;;;;;6.05;1.92;;;4.00;99.90;;;;;;5102956;28;20060;-65
2021/03/06 08:49:52;;;;;;;5.00;1.98;;;4.00;99.90;;;;;;5103338;28;20043;-67
2021/03/06 08:52:19;;;;;;;9.80;2.33;;;4.10;99.90;;;;;;5105586;28;20055;-65
2021/03/06 08:54:45;;;;;;;8.93;1.77;;;4.10;99.90;;;;;;5122894;28;20048;-65
2021/03/06 08:57:26;;;;;;;10.20;2.20;;;4.00;99.90;;;;;;5106344;28;20306;-65
2021/03/06 08:59:52;;;;;;;4.18;2.08;;;4.10;99.90;;;;;;5112748;28;20043;-66
2021/03/06 09:02:32;;;;;;;11.00;2.22;;;4.20;99.90;;;;;;5105753;28;20457;-65
2021/03/06 09:05:06;;;;;;;7.30;2.05;;;4.40;99.90;;;;;;5105120;28;20077;-65
2021/03/06 09:07:33;;;;;;;4.82;1.52;;;4.60;99.90;;;;;;5108410;28;20123;-65
2021/03/06 09:10:27;;;;;;;5.53;2.13;;;4.80;99.90;;;;;;5107418;28;20040;-65
2021/03/06 09:13:02;;;;;;;8.45;2.10;;;4.90;99.90;;;;;;5127907;28;20043;-65
2021/03/06 09:15:36;;;;;;;6.10;1.75;;;5.00;99.90;;;;;;5120401;28;20040;-65
2021/03/06 09:18:04;;;;;;;2.13;0.80;;;5.10;99.90;;;;;;5106934;28;20047;-65
2021/03/06 09:20:32;;;;;;;3.72;1.20;;;5.30;99.90;;;;;;5120790;28;20042;-65
2021/03/06 09:22:58;;;;;;;4.22;0.80;;;5.40;99.90;;;;;;5120424;28;20050;-65
2021/03/06 09:25:33;;;;;;;6.20;1.10;;;5.30;99.90;;;;;;5107664;28;20063;-65
2021/03/06 09:27:59;;;;;;;2.97;1.00;;;5.40;99.90;;;;;;5107068;28;20047;-65
2021/03/06 09:30:32;;;;;;;2.00;0.85;;;5.70;99.90;;;;;;5111526;28;20039;-65
2021/03/06 09:32:58;;;;;;;3.97;0.82;;;5.80;99.90;;;;;;5108545;28;20044;-65
2021/03/06 09:35:24;;;;;;;1.77;0.63;;;5.70;99.90;;;;;;5106792;28;20032;-65
2021/03/06 09:38:11;;;;;;;2.70;0.50;;;5.70;99.90;;;;;;5106589;28;20044;-65
2021/03/06 09:40:44;;;;;;;1.50;0.55;;;5.70;99.90;;;;;;5106348;28;20044;-65
2021/03/06 09:43:15;;;;;;;3.97;0.90;;;5.70;99.90;;;;;;5106822;28;20040;-65
2021/03/06 09:45:42;;;;;;;3.63;0.70;;;5.80;99.90;;;;;;5106883;28;20124;-65
2021/03/06 09:48:16;;;;;;;9.00;0.80;;;5.70;99.90;;;;;;5105965;28;20161;-65
2021/03/06 09:50:46;;;;;;;7.13;1.02;;;5.80;99.90;;;;;;5106672;28;20066;-67
2021/03/06 09:53:11;;;;;;;4.15;0.95;;;5.80;99.90;;;;;;5106312;28;20074;-67
2021/03/06 09:55:37;;;;;;;4.10;1.58;;;5.70;99.90;;;;;;5108429;28;20087;-65
2021/03/06 09:58:21;;;;;;;7.72;1.40;;;5.70;99.90;;;;;;5118396;28;20048;-66
2021/03/06 10:00:48;;;;;;;5.30;1.40;;;5.80;99.90;;;;;;5109010;28;20107;-66
2021/03/06 10:03:33;;;;;;;4.63;1.20;;;5.80;99.90;;;;;;5105778;28;20108;-66
2021/03/06 10:06:02;;;;;;;7.43;1.35;;;5.90;99.90;;;;;;5106332;28;20504;-67
2021/03/06 10:08:31;;;;;;;7.28;1.40;;;5.90;99.90;;;;;;5123281;28;20049;-67
2021/03/06 10:10:58;;;;;;;3.67;1.23;;;5.90;99.90;;;;;;5109464;28;20142;-67
2021/03/06 10:13:25;;;;;;;6.25;1.40;;;6.00;99.90;;;;;;5121886;28;20039;-67
2021/03/06 10:15:53;;;;;;;6.07;1.73;;;6.00;99.90;;;;;;5114687;28;20438;-67
2021/03/06 10:18:20;;;;;;;7.78;1.35;;;5.90;99.90;;;;;;5108052;28;20048;-67
2021/03/06 10:20:47;;;;;;;8.20;1.33;;;6.00;99.90;;;;;;5116669;28;20055;-67
2021/03/06 10:23:13;;;;;;;5.22;1.10;;;6.00;99.90;;;;;;5106893;28;20044;-67
2021/03/06 10:25:39;;;;;;;4.07;1.27;;;6.10;99.90;;;;;;5113673;28;20051;-67
2021/03/06 10:28:11;;;;;;;6.20;1.42;;;6.20;99.90;;;;;;5107290;28;20048;-67
2021/03/06 10:30:41;;;;;;;8.10;1.08;;;6.20;99.90;;;;;;5112079;28;20047;-66
2021/03/06 10:33:20;;;;;;;9.98;1.77;;;6.20;99.90;;;;;;5113059;28;20055;-65
2021/03/06 10:35:49;;;;;;;5.80;1.13;;;6.30;99.90;;;;;;5112136;28;20144;-65
2021/03/06 10:38:26;;;;;;;2.70;1.10;;;6.30;99.90;;;;;;5113362;28;20105;-65
2021/03/06 10:41:03;;;;;;;4.93;1.90;;;6.20;99.90;;;;;;5105943;28;20097;-65
2021/03/06 10:43:54;;;;;;;6.60;1.57;;;6.30;99.90;;;;;;5105608;28;20451;-65
2021/03/06 10:46:24;;;;;;;3.42;1.17;;;6.30;99.90;;;;;;5105361;28;20056;-65
2021/03/06 10:48:55;;;;;;;4.43;1.25;;;6.30;99.90;;;;;;5105071;28;20132;-65
2021/03/06 10:51:23;;;;;;;6.60;1.30;;;6.40;99.90;;;;;;5110542;28;20055;-66
2021/03/06 10:54:02;;;;;;;7.40;1.48;;;6.50;99.90;;;;;;5105484;28;20055;-65
2021/03/06 10:56:28;;;;;;;6.05;1.38;;;6.40;99.90;;;;;;5105673;28;20442;-65
2021/03/06 10:58:54;;;;;;;9.88;1.58;;;6.40;99.90;;;;;;5105283;28;20051;-65
2021/03/06 11:01:21;;;;;;;8.80;1.40;;;6.60;99.90;;;;;;5104854;28;20078;-65
2021/03/06 11:03:51;;;;;;;6.47;1.30;;;6.50;99.90;;;;;;5105396;28;20055;-65
2021/03/06 11:06:19;;;;;;;2.28;1.15;;;6.70;99.90;;;;;;5104996;28;20044;-65
2021/03/06 11:09:02;;;;;;;2.58;1.15;;;6.70;99.90;;;;;;5105440;28;20048;-67
2021/03/06 11:11:28;;;;;;;11.55;1.75;;;6.80;99.90;;;;;;5107612;28;20044;-67
2021/03/06 11:13:54;;;;;;;11.95;2.53;;;6.80;99.90;;;;;;5116083;28;20070;-66
2021/03/06 11:16:40;;;;;;;3.38;1.52;;;6.80;99.90;;;;;;5117452;28;20123;-66
2021/03/06 11:19:07;;;;;;;8.20;1.15;;;6.90;99.90;;;;;;5117902;28;20054;-66
2021/03/06 11:21:33;;;;;;;3.15;1.05;;;6.70;99.90;;;;;;5109369;28;20047;-66
2021/03/06 11:24:00;;;;;;;2.55;0.75;;;6.60;99.90;;;;;;5112590;28;20050;-66
2021/03/06 11:26:26;;;;;;;4.72;1.00;;;6.50;99.90;;;;;;5111549;28;20123;-66
2021/03/06 11:28:54;;;;;;;5.28;1.48;;;6.40;99.90;;;;;;5113533;28;20436;-66
2021/03/06 11:31:20;;;;;;;3.22;1.20;;;6.40;99.90;;;;;;5103804;28;20052;-66
2021/03/06 11:33:46;;;;;;;14.57;2.35;;;6.40;99.90;;;;;;5104437;28;20053;-66
2021/03/06 11:36:12;;;;;;;4.15;1.30;;;6.40;99.90;;;;;;5104958;28;20506;-66
2021/03/06 11:38:37;;;;;;;6.72;1.55;;;6.40;99.90;;;;;;5104534;28;20043;-66
2021/03/06 11:41:03;;;;;;;4.70;1.35;;;6.50;99.90;;;;;;5104903;28;20103;-66
2021/03/06 11:43:29;;;;;;;3.92;1.38;;;6.60;99.90;;;;;;5104366;28;20047;-66
2021/03/06 11:45:55;;;;;;;7.47;2.10;;;6.40;99.90;;;;;;5104507;28;20488;-66
2021/03/06 11:48:20;;;;;;;6.03;1.48;;;6.50;99.90;;;;;;5105996;28;20072;-66
2021/03/06 11:50:48;;;;;;;7.85;1.23;;;6.60;99.90;;;;;;5109382;28;20035;-66
2021/03/06 11:53:15;;;;;;;6.97;0.90;;;6.50;99.90;;;;;;5114818;28;20048;-66
2021/03/06 11:55:41;;;;;;;3.53;1.20;;;6.50;99.90;;;;;;5118601;28;20059;-67
2021/03/06 11:58:06;;;;;;;5.82;1.40;;;6.40;99.90;;;;;;5104301;28;20051;-66
2021/03/06 12:00:35;;;;;;;2.80;1.35;;;6.60;99.90;;;;;;5104669;28;20048;-66
2021/03/06 12:03:01;;;;;;;;;;;6.50;99.90;;;;;;5110942;28;20201;-66
2021/03/06 12:05:27;;;;;;;7.35;1.48;;;6.70;99.90;;;;;;5106194;28;20128;-66
2021/03/06 12:07:53;;;;;;;9.35;1.58;;;6.70;99.90;;;;;;5103624;28;20047;-66
2021/03/06 12:10:25;;;;;;;5.55;1.77;;;6.80;99.90;;;;;;5112520;28;20044;-66
2021/03/06 12:12:51;;;;;;;3.78;0.82;;;7.00;99.90;;;;;;5104434;28;20097;-66
2021/03/06 12:15:18;;;;;;;4.70;1.33;;;7.00;99.90;;;;;;5110089;28;20497;-66
2021/03/06 12:17:45;;;;;;;3.30;1.13;;;7.10;99.90;;;;;;5111212;28;20042;-66
2021/03/06 12:20:12;;;;;;;4.72;0.93;;;7.00;99.90;;;;;;5112844;28;20044;-66
2021/03/06 12:22:38;;;;;;;4.40;0.90;;;6.90;99.90;;;;;;5105775;28;20467;-66
2021/03/06 12:25:05;;;;;;;2.50;0.85;;;6.80;99.90;;;;;;5113293;28;20046;-66
2021/03/06 12:27:32;;;;;;;5.35;0.90;;;6.80;99.90;;;;;;5104144;28;20242;-67
2021/03/06 12:29:57;;;;;;;2.92;0.98;;;6.60;99.90;;;;;;5104356;28;20061;-66
2021/03/06 12:32:23;;;;;;;5.50;1.17;;;6.70;99.90;;;;;;5113129;28;20040;-66
2021/03/06 12:34:49;;;;;;;2.40;0.70;;;6.60;99.90;;;;;;5103830;28;20047;-66
2021/03/06 12:37:16;;;;;;;7.38;1.63;;;6.50;99.90;;;;;;5103546;28;20048;-66
2021/03/06 12:39:41;;;;;;;7.85;1.30;;;6.50;99.90;;;;;;5119141;28;20036;-66
2021/03/06 12:42:07;;;;;;;6.00;1.02;;;6.60;99.90;;;;;;5103802;28;20044;-66
2021/03/06 12:44:33;;;;;;;5.30;1.10;;;6.50;99.90;;;;;;5103427;28;20040;-66
2021/03/06 12:46:59;;;;;;;6.22;1.30;;;6.50;99.90;;;;;;5116097;28;20043;-67
2021/03/06 12:49:25;;;;;;;10.35;1.50;;;6.30;99.90;;;;;;5103172;28;20532;-66
2021/03/06 12:51:50;;;;;;;10.75;1.60;;;6.20;99.90;;;;;;5103779;28;20078;-66
2021/03/06 12:54:16;;;;;;;5.95;0.95;;;6.10;99.90;;;;;;5102445;28;20074;-67
2021/03/06 12:56:42;;;;;;;4.60;1.17;;;6.20;99.90;;;;;;5104809;28;20050;-67
2021/03/06 12:59:08;;;;;;;5.28;1.08;;;6.10;99.90;;;;;;5091156;28;20051;-66
2021/03/06 13:01:35;;;;;;;9.48;1.33;;;6.20;99.90;;;;;;5112123;28;20047;-66
2021/03/06 13:04:01;;;;;;;3.35;1.00;;;6.20;99.90;;;;;;5118044;28;20054;-67